Time;durP1;ratioP1;P1;durP2;ratioP2;P2;SDS_P1;SDS_P2;PMS_P1;PMS_P2;Temp;Humidity;BMP_temperature;BMP_pressure;BME280_temperature;BME280_humidity;BME280_pressure;Samples;Min_cycle;Max_cycle;Signal;HPM_P1;HPM_P2
2023/06/30 00:01:13;;;;;;;0.30;0.30;;;;;;;;;;5072828;28;20476;-68
2023/06/30 00:03:39;;;;;;;0.28;0.28;;;;;;;;;;5072991;28;20103;-68
2023/06/30 00:06:04;;;;;;;0.25;0.25;;;;;;;;;;5072806;28;20123;-69
2023/06/30 00:08:29;;;;;;;0.20;0.20;;;;;;;;;;5053060;28;20028;-68
2023/06/30 00:10:55;;;;;;;10.82;4.20;;;;;;;;;;5070527;28;20024;-68
2023/06/30 00:13:20;;;;;;;0.30;0.30;;;;;;;;;;5070541;28;20480;-68
2023/06/30 00:15:46;;;;;;;0.40;0.40;;;;;;;;;;5070107;28;20033;-69
2023/06/30 00:18:11;;;;;;;0.20;0.20;;;;;;;;;;5070736;28;20038;-68
2023/06/30 00:20:36;;;;;;;0.20;0.20;;;;;;;;;;5071576;28;20475;-68
2023/06/30 00:23:02;;;;;;;0.20;0.20;;;;;;;;;;5072741;28;20032;-67
2023/06/30 00:25:27;;;;;;;1.10;1.10;;;;;;;;;;5092652;28;20028;-68
2023/06/30 00:27:53;;;;;;;0.30;0.30;;;;;;;;;;5092124;28;20344;-68
2023/06/30 00:30:18;;;;;;;19.15;17.98;;;;;;;;;;5092788;28;20430;-68
2023/06/30 00:32:43;;;;;;;0.20;0.20;;;;;;;;;;5074658;28;20040;-68
2023/06/30 00:35:09;;;;;;;0.20;0.20;;;;;;;;;;5092595;28;20093;-68
2023/06/30 00:37:34;;;;;;;0.20;0.20;;;;;;;;;;5074558;28;20040;-68
2023/06/30 00:39:59;;;;;;;0.28;0.28;;;;;;;;;;5074559;28;20525;-67
2023/06/30 00:42:25;;;;;;;0.20;0.20;;;;;;;;;;5092353;28;20128;-68
2023/06/30 00:44:52;;;;;;;0.20;0.20;;;;;;;;;;5074201;28;20032;-68
2023/06/30 00:47:17;;;;;;;0.30;0.30;;;;;;;;;;5092513;28;20036;-69
2023/06/30 00:49:43;;;;;;;0.20;0.20;;;;;;;;;;5092727;28;20020;-68
2023/06/30 00:52:09;;;;;;;0.38;0.38;;;;;;;;;;5092638;28;20039;-68
2023/06/30 00:54:35;;;;;;;0.20;0.20;;;;;;;;;;5074461;28;20471;-68
2023/06/30 00:57:04;;;;;;;0.22;0.22;;;;;;;;;;5092223;28;20524;-68
2023/06/30 00:59:30;;;;;;;0.20;0.20;;;;;;;;;;5074351;28;20032;-68
2023/06/30 01:02:00;;;;;;;0.20;0.20;;;;;;;;;;5074503;28;20028;-68
2023/06/30 01:04:25;;;;;;;0.35;0.35;;;;;;;;;;5095569;28;20028;-68
2023/06/30 01:07:13;;;;;;;0.38;0.38;;;;;;;;;;5096017;28;20042;-68
2023/06/30 01:09:39;;;;;;;0.20;0.20;;;;;;;;;;5095976;28;20040;-68
2023/06/30 01:12:07;;;;;;;0.30;0.30;;;;;;;;;;5095825;28;20028;-67
2023/06/30 01:14:33;;;;;;;0.20;0.20;;;;;;;;;;5077604;28;20749;-68
2023/06/30 01:16:59;;;;;;;0.20;0.20;;;;;;;;;;5095754;28;20101;-69
2023/06/30 01:19:35;;;;;;;0.63;0.63;;;;;;;;;;5095589;28;20482;-68
2023/06/30 01:22:08;;;;;;;0.20;0.20;;;;;;;;;;5095615;28;20115;-68
2023/06/30 01:24:34;;;;;;;0.20;0.20;;;;;;;;;;5077543;28;20493;-68
2023/06/30 01:27:00;;;;;;;0.20;0.20;;;;;;;;;;5095581;28;20563;-68
2023/06/30 01:29:26;;;;;;;4.75;1.30;;;;;;;;;;5095489;28;20036;-68
2023/06/30 01:31:52;;;;;;;12.25;11.60;;;;;;;;;;5095486;28;20031;-69
2023/06/30 01:34:17;;;;;;;0.30;0.30;;;;;;;;;;5095386;28;20098;-70
2023/06/30 01:36:43;;;;;;;0.90;0.90;;;;;;;;;;5095254;28;20034;-68
2023/06/30 01:39:08;;;;;;;0.50;0.50;;;;;;;;;;5093839;28;20032;-69
2023/06/30 01:41:34;;;;;;;0.20;0.20;;;;;;;;;;5095296;28;20027;-69
2023/06/30 01:44:00;;;;;;;6.25;5.88;;;;;;;;;;5095269;28;20024;-68
2023/06/30 01:46:25;;;;;;;0.35;0.35;;;;;;;;;;5095130;28;20056;-68
2023/06/30 01:48:51;;;;;;;0.20;0.20;;;;;;;;;;5095227;28;20028;-68
2023/06/30 01:51:17;;;;;;;0.38;0.38;;;;;;;;;;5095018;28;20031;-68
2023/06/30 01:53:43;;;;;;;1.13;1.10;;;;;;;;;;5077096;28;20030;-68
2023/06/30 01:56:11;;;;;;;0.30;0.30;;;;;;;;;;5060881;28;20499;-69
2023/06/30 01:58:36;;;;;;;0.20;0.20;;;;;;;;;;5077007;28;20123;-68
2023/06/30 02:01:02;;;;;;;0.20;0.20;;;;;;;;;;5095165;28;20437;-69
2023/06/30 02:03:29;;;;;;;2.65;2.55;;;;;;;;;;5076836;28;20127;-69
2023/06/30 02:05:54;;;;;;;0.20;0.20;;;;;;;;;;5076748;28;20017;-68
2023/06/30 02:08:20;;;;;;;0.28;0.28;;;;;;;;;;5076855;28;20123;-69
2023/06/30 02:10:47;;;;;;;0.20;0.20;;;;;;;;;;5095053;28;20428;-68
2023/06/30 02:13:13;;;;;;;0.20;0.20;;;;;;;;;;5094467;28;20067;-68
2023/06/30 02:15:38;;;;;;;0.20;0.20;;;;;;;;;;5094452;28;20040;-69
2023/06/30 02:18:04;;;;;;;0.20;0.20;;;;;;;;;;5094731;28;20105;-69
2023/06/30 02:20:32;;;;;;;0.20;0.20;;;;;;;;;;5075832;28;20024;-69
2023/06/30 02:22:58;;;;;;;0.40;0.40;;;;;;;;;;5085367;28;20082;-68
2023/06/30 02:25:23;;;;;;;0.20;0.20;;;;;;;;;;5074763;28;20028;-68
2023/06/30 02:27:52;;;;;;;0.20;0.20;;;;;;;;;;5076633;28;20379;-68
2023/06/30 02:30:17;;;;;;;0.20;0.20;;;;;;;;;;5092884;28;20113;-68
2023/06/30 02:32:43;;;;;;;0.20;0.20;;;;;;;;;;5094659;28;20482;-68
2023/06/30 02:35:10;;;;;;;0.30;0.30;;;;;;;;;;5094264;28;20115;-68
2023/06/30 02:37:36;;;;;;;0.20;0.20;;;;;;;;;;5094506;28;20169;-69
2023/06/30 02:40:02;;;;;;;0.20;0.20;;;;;;;;;;5076230;28;20116;-68
2023/06/30 02:42:28;;;;;;;0.20;0.20;;;;;;;;;;5076339;28;20398;-69
2023/06/30 02:44:54;;;;;;;0.35;0.35;;;;;;;;;;5076220;28;20043;-68
2023/06/30 02:47:20;;;;;;;0.10;0.10;;;;;;;;;;5076247;28;20502;-69
2023/06/30 02:49:45;;;;;;;0.22;0.22;;;;;;;;;;5094147;28;20016;-69
2023/06/30 02:52:11;;;;;;;0.20;0.20;;;;;;;;;;5092625;28;20039;-68
2023/06/30 02:54:36;;;;;;;1.42;1.20;;;;;;;;;;5075604;28;20039;-68
2023/06/30 02:57:01;;;;;;;0.25;0.25;;;;;;;;;;5076118;28;20064;-68
2023/06/30 02:59:28;;;;;;;0.20;0.20;;;;;;;;;;5076119;28;20501;-68
2023/06/30 03:01:54;;;;;;;0.20;0.20;;;;;;;;;;5093188;28;20118;-68
2023/06/30 03:04:19;;;;;;;0.20;0.20;;;;;;;;;;5088344;28;20032;-69
2023/06/30 03:06:44;;;;;;;0.63;0.63;;;;;;;;;;5071693;28;20100;-69
2023/06/30 03:09:11;;;;;;;0.20;0.20;;;;;;;;;;5071543;28;20039;-69
2023/06/30 03:11:37;;;;;;;0.20;0.20;;;;;;;;;;5071944;28;20027;-69
2023/06/30 03:14:03;;;;;;;0.43;0.43;;;;;;;;;;5090030;28;20036;-69
2023/06/30 03:16:36;;;;;;;0.20;0.20;;;;;;;;;;5071249;28;20040;-68
2023/06/30 03:19:02;;;;;;;0.20;0.20;;;;;;;;;;5070042;28;20430;-68
2023/06/30 03:21:29;;;;;;;2.55;1.10;;;;;;;;;;5071672;28;20043;-69
2023/06/30 03:23:54;;;;;;;0.20;0.20;;;;;;;;;;5071514;28;20028;-68
2023/06/30 03:26:20;;;;;;;0.57;0.52;;;;;;;;;;5070011;28;20028;-69
2023/06/30 03:28:45;;;;;;;0.30;0.30;;;;;;;;;;5071440;28;20498;-69
2023/06/30 03:31:12;;;;;;;0.40;0.40;;;;;;;;;;5071260;28;20039;-69
2023/06/30 03:33:37;;;;;;;0.20;0.20;;;;;;;;;;5089355;28;20035;-71
2023/06/30 03:36:02;;;;;;;0.40;0.40;;;;;;;;;;5071042;28;20081;-69
2023/06/30 03:38:28;;;;;;;0.70;0.70;;;;;;;;;;5070753;28;20372;-68
2023/06/30 03:40:54;;;;;;;0.20;0.20;;;;;;;;;;5065659;28;20029;-68
2023/06/30 03:43:22;;;;;;;0.20;0.20;;;;;;;;;;5068919;28;20418;-68
2023/06/30 03:45:48;;;;;;;0.20;0.20;;;;;;;;;;5051958;28;20036;-69
2023/06/30 03:48:13;;;;;;;0.20;0.20;;;;;;;;;;5068538;28;20029;-71
2023/06/30 03:50:41;;;;;;;0.20;0.20;;;;;;;;;;5067663;28;20981;-68
2023/06/30 03:53:06;;;;;;;0.22;0.22;;;;;;;;;;5068854;28;20033;-68
2023/06/30 03:55:34;;;;;;;0.88;0.88;;;;;;;;;;5050606;28;20067;-68
2023/06/30 03:58:00;;;;;;;0.20;0.20;;;;;;;;;;5050574;28;20075;-69
2023/06/30 04:00:25;;;;;;;0.20;0.20;;;;;;;;;;5070652;28;20118;-69
2023/06/30 04:02:50;;;;;;;0.20;0.20;;;;;;;;;;5077918;28;20051;-69
2023/06/30 04:05:16;;;;;;;0.20;0.20;;;;;;;;;;5088976;28;20127;-69
2023/06/30 04:07:41;;;;;;;0.20;0.20;;;;;;;;;;5088927;28;20032;-68
2023/06/30 04:10:07;;;;;;;0.20;0.20;;;;;;;;;;5088978;28;20024;-74
2023/06/30 04:12:32;;;;;;;0.20;0.20;;;;;;;;;;5088912;28;20031;-70
2023/06/30 04:14:58;;;;;;;0.20;0.20;;;;;;;;;;5088863;28;20043;-70
2023/06/30 04:17:23;;;;;;;0.20;0.20;;;;;;;;;;5088938;28;20032;-69
2023/06/30 04:19:48;;;;;;;0.15;0.15;;;;;;;;;;5088965;28;20027;-72
2023/06/30 04:22:14;;;;;;;0.28;0.28;;;;;;;;;;5089122;28;20089;-70
2023/06/30 04:24:39;;;;;;;0.20;0.20;;;;;;;;;;5087588;28;20387;-69
2023/06/30 04:27:05;;;;;;;0.20;0.20;;;;;;;;;;5088989;28;20035;-69
2023/06/30 04:29:30;;;;;;;0.88;0.82;;;;;;;;;;5088522;28;20425;-70
2023/06/30 04:31:56;;;;;;;0.20;0.20;;;;;;;;;;5087885;28;20423;-69
2023/06/30 04:34:21;;;;;;;0.30;0.30;;;;;;;;;;5085774;28;20032;-71
2023/06/30 04:36:49;;;;;;;0.20;0.20;;;;;;;;;;5090073;28;20126;-69
2023/06/30 04:39:15;;;;;;;5.28;3.58;;;;;;;;;;5094245;28;20056;-69
2023/06/30 04:41:40;;;;;;;0.30;0.30;;;;;;;;;;5094552;28;20484;-69
2023/06/30 04:44:05;;;;;;;0.35;0.35;;;;;;;;;;5095285;28;20421;-69
2023/06/30 04:46:31;;;;;;;0.10;0.10;;;;;;;;;;5093553;28;20390;-69
2023/06/30 04:48:56;;;;;;;0.20;0.20;;;;;;;;;;5073907;28;20107;-69
2023/06/30 04:51:22;;;;;;;0.20;0.20;;;;;;;;;;5095287;28;20111;-69
2023/06/30 04:53:47;;;;;;;0.20;0.20;;;;;;;;;;5077229;28;20028;-71
2023/06/30 04:56:13;;;;;;;0.30;0.30;;;;;;;;;;5095172;28;20058;-69
2023/06/30 04:58:38;;;;;;;0.30;0.30;;;;;;;;;;5093379;28;20035;-70
2023/06/30 05:01:04;;;;;;;0.20;0.20;;;;;;;;;;5093193;28;20032;-69
2023/06/30 05:03:30;;;;;;;0.22;0.22;;;;;;;;;;5095007;28;20042;-68
2023/06/30 05:05:57;;;;;;;0.20;0.20;;;;;;;;;;5095117;28;20407;-69
2023/06/30 05:08:23;;;;;;;0.68;0.68;;;;;;;;;;5094833;28;20483;-68
2023/06/30 05:10:48;;;;;;;0.20;0.20;;;;;;;;;;5094163;28;20036;-73
2023/06/30 05:13:14;;;;;;;0.50;0.50;;;;;;;;;;5079360;28;20028;-68
2023/06/30 05:15:39;;;;;;;0.20;0.20;;;;;;;;;;5080321;28;20067;-69
2023/06/30 05:18:05;;;;;;;0.40;0.40;;;;;;;;;;5095087;28;20028;-68
2023/06/30 05:20:33;;;;;;;0.20;0.20;;;;;;;;;;5093267;28;20114;-68
2023/06/30 05:22:59;;;;;;;0.20;0.20;;;;;;;;;;5092630;28;20517;-69
2023/06/30 05:25:24;;;;;;;0.65;0.65;;;;;;;;;;5091279;28;20110;-69
2023/06/30 05:27:50;;;;;;;0.20;0.20;;;;;;;;;;5093511;28;20032;-72
2023/06/30 05:30:16;;;;;;;0.30;0.30;;;;;;;;;;5093692;28;20035;-69
2023/06/30 05:32:41;;;;;;;0.20;0.20;;;;;;;;;;5094890;28;20539;-69
2023/06/30 05:35:07;;;;;;;0.32;0.32;;;;;;;;;;5094630;28;20055;-69
2023/06/30 05:37:32;;;;;;;0.20;0.20;;;;;;;;;;5094908;28;20502;-70
2023/06/30 05:39:57;;;;;;;0.20;0.20;;;;;;;;;;5094674;28;20407;-69
2023/06/30 05:42:23;;;;;;;0.22;0.22;;;;;;;;;;5093925;28;20054;-69
2023/06/30 05:44:50;;;;;;;1.33;1.30;;;;;;;;;;5094676;28;20043;-68
2023/06/30 05:47:16;;;;;;;8.48;5.20;;;;;;;;;;5091105;28;20495;-70
2023/06/30 05:49:41;;;;;;;0.22;0.22;;;;;;;;;;5090903;28;20097;-69
2023/06/30 05:52:07;;;;;;;0.30;0.30;;;;;;;;;;5090991;28;20099;-69
2023/06/30 05:54:32;;;;;;;0.20;0.20;;;;;;;;;;5071652;28;20055;-69
2023/06/30 05:56:58;;;;;;;0.30;0.30;;;;;;;;;;5086133;28;20062;-69
2023/06/30 05:59:23;;;;;;;0.20;0.20;;;;;;;;;;5066359;28;20036;-70
2023/06/30 06:01:48;;;;;;;2.17;2.08;;;;;;;;;;5085565;28;20032;-69
2023/06/30 06:04:14;;;;;;;0.20;0.20;;;;;;;;;;5085153;28;20115;-70
2023/06/30 06:06:39;;;;;;;0.32;0.32;;;;;;;;;;5077390;28;20298;-74
2023/06/30 06:09:05;;;;;;;0.20;0.20;;;;;;;;;;5078253;28;20036;-70
2023/06/30 06:11:30;;;;;;;0.25;0.25;;;;;;;;;;5079017;28;20028;-69
2023/06/30 06:13:56;;;;;;;0.20;0.20;;;;;;;;;;5080388;28;20020;-70
2023/06/30 06:16:21;;;;;;;0.30;0.30;;;;;;;;;;5078107;28;20024;-68
2023/06/30 06:18:47;;;;;;;0.30;0.30;;;;;;;;;;5070368;28;20032;-69
2023/06/30 06:21:13;;;;;;;0.20;0.20;;;;;;;;;;5070628;28;20090;-69
2023/06/30 06:23:38;;;;;;;2.72;0.98;;;;;;;;;;5070468;28;20075;-68
2023/06/30 06:26:04;;;;;;;1.95;1.85;;;;;;;;;;5070848;28;20044;-69
2023/06/30 06:28:29;;;;;;;0.28;0.28;;;;;;;;;;5070468;28;20067;-69
2023/06/30 06:30:54;;;;;;;0.30;0.30;;;;;;;;;;5052671;28;20036;-69
2023/06/30 06:33:20;;;;;;;0.55;0.55;;;;;;;;;;5070881;28;20046;-72
2023/06/30 06:35:46;;;;;;;2.13;2.03;;;;;;;;;;5070025;28;20037;-69
2023/06/30 06:38:15;;;;;;;0.30;0.30;;;;;;;;;;5070420;28;20102;-71
2023/06/30 06:40:40;;;;;;;;;;;;;;;;;;5070628;28;20031;-69
2023/06/30 06:43:05;;;;;;;0.30;0.30;;;;;;;;;;5070408;28;20003;-69
2023/06/30 06:45:32;;;;;;;0.25;0.25;;;;;;;;;;5070088;28;20068;-69
2023/06/30 06:48:16;;;;;;;0.30;0.30;;;;;;;;;;5069970;28;20489;-72
2023/06/30 06:50:42;;;;;;;0.20;0.20;;;;;;;;;;5070116;28;20110;-68
2023/06/30 06:53:07;;;;;;;0.30;0.30;;;;;;;;;;5070192;28;20500;-68
2023/06/30 06:55:33;;;;;;;0.55;0.55;;;;;;;;;;5069930;28;20044;-68
2023/06/30 06:57:59;;;;;;;0.50;0.50;;;;;;;;;;5069852;28;20040;-70
2023/06/30 07:00:24;;;;;;;0.40;0.40;;;;;;;;;;5068409;28;20063;-70
2023/06/30 07:02:50;;;;;;;0.30;0.30;;;;;;;;;;5075198;28;20081;-71
2023/06/30 07:05:16;;;;;;;0.30;0.30;;;;;;;;;;5079828;28;20089;-69
2023/06/30 07:07:41;;;;;;;0.40;0.40;;;;;;;;;;5078101;28;20026;-72
2023/06/30 07:10:07;;;;;;;0.40;0.40;;;;;;;;;;5077943;28;20032;-69
2023/06/30 07:12:32;;;;;;;0.25;0.25;;;;;;;;;;5079280;28;20024;-69
2023/06/30 07:14:57;;;;;;;1.45;0.63;;;;;;;;;;5079403;28;20044;-68
2023/06/30 07:17:23;;;;;;;3.13;1.60;;;;;;;;;;5077827;28;20021;-69
2023/06/30 07:19:48;;;;;;;0.40;0.40;;;;;;;;;;5078813;28;20384;-68
2023/06/30 07:22:14;;;;;;;0.70;0.68;;;;;;;;;;5079864;28;20624;-71
2023/06/30 07:24:39;;;;;;;0.40;0.40;;;;;;;;;;5089813;28;20040;-70
2023/06/30 07:27:05;;;;;;;0.30;0.30;;;;;;;;;;5076649;28;20037;-68
2023/06/30 07:29:30;;;;;;;0.30;0.30;;;;;;;;;;5069439;28;20040;-69
2023/06/30 07:31:56;;;;;;;0.50;0.50;;;;;;;;;;5077919;28;20105;-70
2023/06/30 07:34:23;;;;;;;0.35;0.35;;;;;;;;;;5075251;28;20063;-69
2023/06/30 07:36:49;;;;;;;0.55;0.55;;;;;;;;;;5078697;28;20043;-68
2023/06/30 07:39:15;;;;;;;0.50;0.50;;;;;;;;;;5069422;28;20446;-69
2023/06/30 07:41:40;;;;;;;0.30;0.30;;;;;;;;;;5070387;28;20029;-69
2023/06/30 07:44:05;;;;;;;1.70;1.55;;;;;;;;;;5083976;28;20132;-68
2023/06/30 07:46:31;;;;;;;2.10;1.90;;;;;;;;;;5085325;28;20078;-69
2023/06/30 07:48:57;;;;;;;0.57;0.57;;;;;;;;;;5079103;28;20086;-68
2023/06/30 07:51:23;;;;;;;0.90;0.77;;;;;;;;;;5069589;28;20086;-71
2023/06/30 07:53:48;;;;;;;1.42;1.33;;;;;;;;;;5067558;28;20368;-69
2023/06/30 07:56:13;;;;;;;0.88;0.82;;;;;;;;;;5069061;28;20387;-68
2023/06/30 07:58:39;;;;;;;0.30;0.30;;;;;;;;;;5069034;28;20492;-69
2023/06/30 08:01:04;;;;;;;2.38;1.17;;;;;;;;;;5069356;28;20315;-67
2023/06/30 08:03:30;;;;;;;0.70;0.70;;;;;;;;;;5068803;28;20037;-68
2023/06/30 08:05:56;;;;;;;1.23;0.95;;;;;;;;;;5069342;28;20081;-68
2023/06/30 08:08:22;;;;;;;1.23;1.13;;;;;;;;;;5068353;28;20034;-69
2023/06/30 08:10:47;;;;;;;0.68;0.68;;;;;;;;;;5068596;28;20111;-70
2023/06/30 08:13:12;;;;;;;0.30;0.30;;;;;;;;;;5068327;28;20061;-68
2023/06/30 08:15:38;;;;;;;2.05;1.45;;;;;;;;;;5068552;28;20028;-68
2023/06/30 08:18:03;;;;;;;2.55;1.23;;;;;;;;;;5068749;28;20085;-68
2023/06/30 08:20:29;;;;;;;1.55;0.88;;;;;;;;;;5068394;28;20055;-69
2023/06/30 08:22:54;;;;;;;0.43;0.43;;;;;;;;;;5068816;28;20036;-70
2023/06/30 08:25:23;;;;;;;0.55;0.55;;;;;;;;;;5068624;28;20479;-68
2023/06/30 08:27:48;;;;;;;;;;;;;;;;;;5068793;28;20498;-70
2023/06/30 08:30:15;;;;;;;0.77;0.77;;;;;;;;;;5068232;28;19975;-70
2023/06/30 08:32:40;;;;;;;0.40;0.40;;;;;;;;;;5068414;28;20046;-69
2023/06/30 08:35:05;;;;;;;0.45;0.45;;;;;;;;;;5068973;28;20040;-69
2023/06/30 08:37:31;;;;;;;2.05;1.95;;;;;;;;;;5050459;28;20032;-69
2023/06/30 08:39:56;;;;;;;1.30;0.93;;;;;;;;;;5068293;28;20479;-68
2023/06/30 08:42:22;;;;;;;0.80;0.80;;;;;;;;;;5068511;28;20025;-69
2023/06/30 08:44:49;;;;;;;2.05;1.85;;;;;;;;;;5068355;28;20491;-69
2023/06/30 08:47:15;;;;;;;0.57;0.57;;;;;;;;;;5067970;28;20376;-69
2023/06/30 08:49:41;;;;;;;0.40;0.40;;;;;;;;;;5068229;28;20029;-69
2023/06/30 08:52:07;;;;;;;0.50;0.50;;;;;;;;;;5068281;28;20036;-70
2023/06/30 08:54:33;;;;;;;1.98;1.80;;;;;;;;;;5068349;28;20029;-69
2023/06/30 08:57:01;;;;;;;0.30;0.30;;;;;;;;;;5068374;28;20032;-69
2023/06/30 08:59:26;;;;;;;0.47;0.47;;;;;;;;;;5050367;28;20033;-69
2023/06/30 09:01:54;;;;;;;0.75;0.75;;;;;;;;;;5068046;28;20052;-69
2023/06/30 09:04:21;;;;;;;0.75;0.68;;;;;;;;;;5067920;28;20037;-69
2023/06/30 09:06:48;;;;;;;1.17;0.90;;;;;;;;;;5067969;28;20064;-69
2023/06/30 09:09:23;;;;;;;2.55;1.95;;;;;;;;;;5050136;28;20024;-70
2023/06/30 09:11:49;;;;;;;6.28;2.97;;;;;;;;;;5067982;28;20048;-69
2023/06/30 09:14:15;;;;;;;0.52;0.52;;;;;;;;;;5049946;28;20031;-69
2023/06/30 09:16:40;;;;;;;1.13;1.02;;;;;;;;;;5067659;28;20044;-70
2023/06/30 09:19:06;;;;;;;0.80;0.80;;;;;;;;;;5068427;28;20119;-69
2023/06/30 09:21:32;;;;;;;1.15;1.00;;;;;;;;;;5067898;28;20028;-69
2023/06/30 09:23:57;;;;;;;2.15;1.65;;;;;;;;;;5069046;28;20032;-69
2023/06/30 09:26:22;;;;;;;0.60;0.57;;;;;;;;;;5070987;28;20044;-70
2023/06/30 09:28:48;;;;;;;7.05;1.65;;;;;;;;;;5071328;28;20111;-69
2023/06/30 09:31:14;;;;;;;3.85;1.58;;;;;;;;;;5071234;28;20477;-71
2023/06/30 09:33:40;;;;;;;2.38;1.75;;;;;;;;;;5071195;28;20032;-69
2023/06/30 09:36:06;;;;;;;3.63;2.40;;;;;;;;;;5070980;28;20028;-69
2023/06/30 09:38:31;;;;;;;2.97;1.58;;;;;;;;;;5071094;28;20035;-69
2023/06/30 09:40:57;;;;;;;2.85;1.67;;;;;;;;;;5071262;28;20032;-69
2023/06/30 09:43:23;;;;;;;4.93;2.47;;;;;;;;;;5070990;28;20017;-69
2023/06/30 09:46:09;;;;;;;4.00;2.53;;;;;;;;;;5070864;28;20067;-69
2023/06/30 09:48:36;;;;;;;2.40;1.75;;;;;;;;;;5070089;28;20057;-71
2023/06/30 09:51:01;;;;;;;3.15;2.25;;;;;;;;;;5071202;28;20376;-69
2023/06/30 09:53:36;;;;;;;1.80;1.10;;;;;;;;;;5070767;28;20035;-72
2023/06/30 09:56:02;;;;;;;2.45;1.23;;;;;;;;;;5070751;28;20071;-69
2023/06/30 09:58:27;;;;;;;2.10;1.27;;;;;;;;;;5070314;28;20100;-69
2023/06/30 10:00:52;;;;;;;1.42;1.00;;;;;;;;;;5070853;28;20103;-69
2023/06/30 10:03:18;;;;;;;1.20;1.10;;;;;;;;;;5070763;28;20403;-70
2023/06/30 10:05:44;;;;;;;3.95;1.75;;;;;;;;;;5070833;28;20036;-70
2023/06/30 10:08:11;;;;;;;1.45;1.35;;;;;;;;;;5052860;28;20037;-69
2023/06/30 10:10:37;;;;;;;2.47;1.48;;;;;;;;;;5070328;28;20115;-69
2023/06/30 10:13:02;;;;;;;3.92;2.22;;;;;;;;;;5070305;28;20111;-69
2023/06/30 10:15:29;;;;;;;4.97;2.78;;;;;;;;;;5070143;28;20498;-70
2023/06/30 10:17:57;;;;;;;2.72;2.20;;;;;;;;;;5070927;28;20120;-69
2023/06/30 10:20:22;;;;;;;1.75;1.33;;;;;;;;;;5070642;28;20093;-69
2023/06/30 10:22:48;;;;;;;2.53;1.92;;;;;;;;;;5052660;28;20155;-69
2023/06/30 10:25:15;;;;;;;1.45;1.17;;;;;;;;;;5070333;28;20159;-68
2023/06/30 10:27:41;;;;;;;0.73;0.73;;;;;;;;;;5070077;28;20029;-68
2023/06/30 10:30:07;;;;;;;2.17;1.77;;;;;;;;;;5070292;28;20496;-69
2023/06/30 10:32:32;;;;;;;0.68;0.68;;;;;;;;;;5070176;28;20476;-70
2023/06/30 10:34:58;;;;;;;5.15;2.58;;;;;;;;;;5069978;28;20116;-70
2023/06/30 10:37:24;;;;;;;0.40;0.40;;;;;;;;;;5070105;28;20037;-69
2023/06/30 10:39:50;;;;;;;2.78;2.20;;;;;;;;;;5070003;28;20021;-69
2023/06/30 10:42:16;;;;;;;0.38;0.38;;;;;;;;;;5070366;28;20028;-70
2023/06/30 10:44:45;;;;;;;3.35;1.42;;;;;;;;;;5070521;28;20075;-70
2023/06/30 10:47:11;;;;;;;1.05;0.80;;;;;;;;;;5070539;28;20435;-69
2023/06/30 10:49:38;;;;;;;2.00;1.55;;;;;;;;;;5069947;28;20039;-69
2023/06/30 10:52:23;;;;;;;3.80;1.65;;;;;;;;;;5069757;28;20039;-71
2023/06/30 10:54:49;;;;;;;2.67;1.75;;;;;;;;;;5069472;28;20036;-69
2023/06/30 10:57:19;;;;;;;1.55;1.38;;;;;;;;;;5070440;28;20392;-70
2023/06/30 10:59:45;;;;;;;1.98;1.13;;;;;;;;;;5069789;28;20544;-69
2023/06/30 11:02:17;;;;;;;0.30;0.30;;;;;;;;;;5069639;28;20037;-72
2023/06/30 11:04:43;;;;;;;1.42;1.33;;;;;;;;;;5069614;28;20119;-69
2023/06/30 11:07:10;;;;;;;0.80;0.77;;;;;;;;;;5070145;28;20430;-68
2023/06/30 11:09:48;;;;;;;6.32;3.40;;;;;;;;;;5052067;28;20048;-68
2023/06/30 11:12:23;;;;;;;0.98;0.63;;;;;;;;;;5071163;28;20044;-71
2023/06/30 11:15:01;;;;;;;0.40;0.40;;;;;;;;;;5087921;28;20449;-69
2023/06/30 11:17:28;;;;;;;0.75;0.73;;;;;;;;;;5089432;28;20036;-69
2023/06/30 11:20:10;;;;;;;0.55;0.55;;;;;;;;;;5086846;28;20403;-69
2023/06/30 11:22:35;;;;;;;3.33;1.58;;;;;;;;;;5086078;28;20459;-68
2023/06/30 11:25:05;;;;;;;1.55;1.15;;;;;;;;;;5090096;28;20024;-68
2023/06/30 11:27:30;;;;;;;0.85;0.85;;;;;;;;;;5088145;28;20065;-68
2023/06/30 11:29:56;;;;;;;2.60;1.70;;;;;;;;;;5088102;28;20025;-69
2023/06/30 11:32:26;;;;;;;3.22;1.70;;;;;;;;;;5085491;28;20466;-70
2023/06/30 11:34:52;;;;;;;0.77;0.77;;;;;;;;;;5087275;28;20064;-68
2023/06/30 11:37:18;;;;;;;5.50;2.58;;;;;;;;;;5089525;28;20064;-70
2023/06/30 11:39:50;;;;;;;3.53;2.40;;;;;;;;;;5089896;28;20024;-70
2023/06/30 11:42:16;;;;;;;1.25;1.00;;;;;;;;;;5087830;28;20480;-69
2023/06/30 11:44:41;;;;;;;8.70;2.72;;;;;;;;;;5089169;28;20039;-69
2023/06/30 11:47:07;;;;;;;2.08;1.25;;;;;;;;;;5088690;28;20169;-72
2023/06/30 11:49:38;;;;;;;3.50;2.88;;;;;;;;;;5090435;28;20023;-68
2023/06/30 11:52:07;;;;;;;0.30;0.30;;;;;;;;;;5089291;28;20036;-72
2023/06/30 11:54:33;;;;;;;6.45;2.03;;;;;;;;;;5069859;28;20480;-68
2023/06/30 11:56:58;;;;;;;4.05;2.65;;;;;;;;;;5068809;28;20036;-68
2023/06/30 11:59:27;;;;;;;0.40;0.40;;;;;;;;;;5068746;28;20036;-69
2023/06/30 12:01:52;;;;;;;3.40;1.92;;;;;;;;;;5082286;28;20043;-69
2023/06/30 12:04:18;;;;;;;3.92;1.70;;;;;;;;;;5089751;28;20035;-69
2023/06/30 12:06:44;;;;;;;1.67;1.23;;;;;;;;;;5089458;28;20066;-69
2023/06/30 12:09:09;;;;;;;1.85;1.48;;;;;;;;;;5082184;28;20498;-69
2023/06/30 12:11:35;;;;;;;1.38;1.20;;;;;;;;;;5077139;28;20044;-69
2023/06/30 12:14:10;;;;;;;0.43;0.43;;;;;;;;;;5080039;28;20064;-69
2023/06/30 12:16:40;;;;;;;1.67;1.17;;;;;;;;;;5076969;28;20045;-69
2023/06/30 12:19:06;;;;;;;1.00;0.80;;;;;;;;;;5085640;28;20101;-69
2023/06/30 12:21:33;;;;;;;1.83;1.20;;;;;;;;;;5089601;28;20032;-70
2023/06/30 12:23:59;;;;;;;2.97;1.58;;;;;;;;;;5090980;28;20535;-68
2023/06/30 12:26:25;;;;;;;2.05;1.50;;;;;;;;;;5091614;28;20111;-69
2023/06/30 12:28:50;;;;;;;0.65;0.55;;;;;;;;;;5086882;28;20491;-69
2023/06/30 12:31:16;;;;;;;0.90;0.75;;;;;;;;;;5088646;28;20031;-70
2023/06/30 12:33:51;;;;;;;2.55;1.95;;;;;;;;;;5087932;28;20475;-69
2023/06/30 12:36:19;;;;;;;0.60;0.60;;;;;;;;;;5088444;28;20050;-69
2023/06/30 12:38:45;;;;;;;1.00;0.95;;;;;;;;;;5089098;28;20040;-69
2023/06/30 12:41:10;;;;;;;3.35;1.42;;;;;;;;;;5087195;28;20107;-70
2023/06/30 12:43:36;;;;;;;3.88;2.65;;;;;;;;;;5089465;28;20024;-69
2023/06/30 12:46:01;;;;;;;3.85;2.15;;;;;;;;;;5090095;28;20027;-69
2023/06/30 12:48:27;;;;;;;0.75;0.75;;;;;;;;;;5088460;28;20519;-69
2023/06/30 12:50:56;;;;;;;4.22;2.10;;;;;;;;;;5087798;28;20046;-68
2023/06/30 12:53:21;;;;;;;2.28;1.65;;;;;;;;;;5093341;28;20023;-69
2023/06/30 12:55:46;;;;;;;0.98;0.88;;;;;;;;;;5102497;28;20047;-69
2023/06/30 12:58:12;;;;;;;0.63;0.60;;;;;;;;;;5110141;28;20114;-70
2023/06/30 13:00:37;;;;;;;1.30;1.20;;;;;;;;;;5107233;28;20480;-69
2023/06/30 13:03:03;;;;;;;8.73;1.23;;;;;;;;;;5091937;28;20028;-69
2023/06/30 13:05:28;;;;;;;1.65;1.02;;;;;;;;;;5091716;28;20024;-70
2023/06/30 13:07:53;;;;;;;1.00;0.90;;;;;;;;;;5092178;28;20036;-70
2023/06/30 13:10:19;;;;;;;2.50;1.85;;;;;;;;;;5091671;28;20024;-69
2023/06/30 13:12:45;;;;;;;2.35;2.15;;;;;;;;;;5091706;28;20036;-70
2023/06/30 13:15:10;;;;;;;3.50;1.98;;;;;;;;;;5089510;28;20040;-69
2023/06/30 13:17:35;;;;;;;1.13;1.02;;;;;;;;;;5089338;28;20603;-69
2023/06/30 13:20:01;;;;;;;2.47;1.27;;;;;;;;;;5091500;28;20489;-71
2023/06/30 13:22:26;;;;;;;4.43;2.80;;;;;;;;;;5091754;28;20150;-70
2023/06/30 13:24:52;;;;;;;2.10;1.50;;;;;;;;;;5091886;28;20132;-70
2023/06/30 13:27:17;;;;;;;3.45;1.65;;;;;;;;;;5091509;28;20081;-69
2023/06/30 13:29:46;;;;;;;1.40;1.30;;;;;;;;;;5092133;28;20039;-69
2023/06/30 13:32:12;;;;;;;1.75;1.13;;;;;;;;;;5091540;28;20036;-71
2023/06/30 13:34:38;;;;;;;6.28;2.00;;;;;;;;;;5091370;28;20032;-69
2023/06/30 13:37:03;;;;;;;0.70;0.70;;;;;;;;;;5092598;28;20110;-70
2023/06/30 13:39:28;;;;;;;1.27;1.20;;;;;;;;;;5103419;28;20040;-69
2023/06/30 13:41:54;;;;;;;3.15;1.88;;;;;;;;;;5097323;28;20477;-69
2023/06/30 13:44:19;;;;;;;4.95;2.80;;;;;;;;;;5096535;28;20040;-70
2023/06/30 13:46:45;;;;;;;2.20;1.83;;;;;;;;;;5095650;28;20034;-69
2023/06/30 13:49:11;;;;;;;3.33;1.42;;;;;;;;;;5084778;28;20474;-72
2023/06/30 13:51:37;;;;;;;2.05;1.10;;;;;;;;;;5092071;28;20428;-69
2023/06/30 13:54:02;;;;;;;0.52;0.50;;;;;;;;;;5090865;28;20036;-70
2023/06/30 13:56:28;;;;;;;0.60;0.60;;;;;;;;;;5090367;28;20170;-69
2023/06/30 13:58:53;;;;;;;0.75;0.75;;;;;;;;;;5090626;28;20471;-73
2023/06/30 14:01:19;;;;;;;0.30;0.30;;;;;;;;;;5090986;28;20032;-71
2023/06/30 14:03:48;;;;;;;0.75;0.70;;;;;;;;;;5098175;28;20398;-70
2023/06/30 14:06:16;;;;;;;0.50;0.50;;;;;;;;;;5100395;28;20038;-67
2023/06/30 14:08:41;;;;;;;0.93;0.88;;;;;;;;;;5090893;28;20035;-70
2023/06/30 14:11:06;;;;;;;1.02;0.75;;;;;;;;;;5074384;28;20028;-69
2023/06/30 14:13:32;;;;;;;1.50;1.15;;;;;;;;;;5092062;28;20032;-71
2023/06/30 14:15:58;;;;;;;0.55;0.55;;;;;;;;;;5086347;28;20069;-70
2023/06/30 14:18:23;;;;;;;0.98;0.90;;;;;;;;;;5101661;28;20057;-70
2023/06/30 14:20:48;;;;;;;5.80;2.83;;;;;;;;;;5101967;28;20030;-70
2023/06/30 14:23:14;;;;;;;1.88;1.42;;;;;;;;;;5093075;28;20035;-72
2023/06/30 14:25:39;;;;;;;2.65;2.22;;;;;;;;;;5090786;28;20063;-70
2023/06/30 14:28:05;;;;;;;1.15;0.75;;;;;;;;;;5090276;28;20037;-71
2023/06/30 14:30:31;;;;;;;2.47;0.73;;;;;;;;;;5071924;28;20391;-70
2023/06/30 14:33:00;;;;;;;2.50;2.00;;;;;;;;;;5090756;28;20077;-70
2023/06/30 14:35:26;;;;;;;3.92;1.95;;;;;;;;;;5090628;28;20032;-70
2023/06/30 14:37:51;;;;;;;1.15;1.05;;;;;;;;;;5090670;28;20093;-68